Time;durP1;ratioP1;P1;durP2;ratioP2;P2;SDS_P1;SDS_P2;PMS_P1;PMS_P2;Temp;Humidity;BMP_temperature;BMP_pressure;BME280_temperature;BME280_humidity;BME280_pressure;Samples;Min_cycle;Max_cycle;Signal;HPM_P1;HPM_P2
2021/03/23 00:00:47;;;;;;;15.35;6.05;;;;;;;0.29;75.42;97373.31;4993188;28;20086;-76
2021/03/23 00:03:35;;;;;;;16.55;5.25;;;;;;;0.44;74.58;97366.47;5026896;28;20129;-75
2021/03/23 00:06:01;;;;;;;14.15;5.50;;;;;;;0.48;74.37;97372.25;5011515;28;20060;-75
2021/03/23 00:08:35;;;;;;;14.15;4.57;;;;;;;0.34;76.40;97378.16;5028754;28;20045;-75
2021/03/23 00:11:09;;;;;;;18.58;5.82;;;;;;;0.40;75.62;97380.38;5033488;28;20032;-76
2021/03/23 00:13:42;;;;;;;14.23;5.00;;;;;;;0.24;77.03;97377.06;5030512;28;20105;-76
2021/03/23 00:16:10;;;;;;;15.98;6.43;;;;;;;-0.02;78.92;97376.81;5022667;28;20481;-76
2021/03/23 00:18:36;;;;;;;21.05;6.63;;;;;;;0.11;77.40;97367.50;4997536;28;20065;-77
2021/03/23 00:21:03;;;;;;;16.10;6.10;;;;;;;0.38;75.63;97372.81;5030755;28;20417;-75
2021/03/23 00:23:29;;;;;;;16.80;6.35;;;;;;;0.22;76.00;97353.28;5009602;28;20136;-76
2021/03/23 00:25:56;;;;;;;20.25;6.20;;;;;;;0.27;75.62;97374.31;5009384;28;20083;-76
2021/03/23 00:28:23;;;;;;;17.55;6.47;;;;;;;0.06;76.04;97366.13;5025093;28;20114;-76
2021/03/23 00:30:53;;;;;;;20.50;6.35;;;;;;;-0.01;76.97;97374.13;5026543;28;20041;-76
2021/03/23 00:33:22;;;;;;;17.55;6.15;;;;;;;0.03;76.46;97358.63;5013463;28;20144;-77
2021/03/23 00:35:50;;;;;;;13.20;5.40;;;;;;;0.05;76.93;97374.72;5028506;28;20045;-76
2021/03/23 00:38:17;;;;;;;18.15;5.78;;;;;;;-0.07;77.09;97371.09;5028338;28;20168;-77
2021/03/23 00:40:43;;;;;;;12.50;5.55;;;;;;;-0.16;77.37;97371.63;5022722;28;20038;-75
2021/03/23 00:43:10;;;;;;;13.98;5.03;;;;;;;-0.21;77.67;97370.13;5013487;28;20064;-74
2021/03/23 00:45:41;;;;;;;15.65;4.93;;;;;;;-0.23;77.50;97366.84;5024937;28;20049;-75
2021/03/23 00:48:09;;;;;;;16.38;5.40;;;;;;;-0.33;78.16;97375.91;5028508;28;20045;-76
2021/03/23 00:50:36;;;;;;;14.75;5.20;;;;;;;-0.33;78.04;97375.91;5030105;28;20045;-76
2021/03/23 00:53:04;;;;;;;15.90;5.75;;;;;;;-0.55;78.76;97376.25;5014393;28;20671;-76
2021/03/23 00:55:30;;;;;;;15.00;6.17;;;;;;;-0.89;79.36;97380.59;5030189;28;20041;-76
2021/03/23 00:57:57;;;;;;;15.83;5.87;;;;;;;-0.72;79.48;97359.25;5027088;28;20049;-76
2021/03/23 01:00:24;;;;;;;15.48;6.30;;;;;;;-0.90;79.73;97378.94;5031703;28;20046;-76
2021/03/23 01:02:51;;;;;;;14.38;5.80;;;;;;;-0.93;79.62;97362.94;5028577;28;20132;-76
2021/03/23 01:05:22;;;;;;;18.10;6.43;;;;;;;-1.24;81.38;97374.75;5029565;28;20848;-77
2021/03/23 01:07:48;;;;;;;17.92;5.85;;;;;;;-1.31;82.06;97365.75;5010165;28;20053;-76
2021/03/23 01:10:17;;;;;;;16.70;5.72;;;;;;;-0.92;80.85;97365.41;5013291;28;20041;-77
2021/03/23 01:12:44;;;;;;;14.43;5.57;;;;;;;-0.73;79.61;97378.06;5011115;28;20049;-75
2021/03/23 01:15:14;;;;;;;15.15;5.20;;;;;;;-0.72;79.79;97359.25;5011782;28;20075;-76
2021/03/23 01:17:41;;;;;;;11.70;5.68;;;;;;;-0.73;80.40;97367.81;5026391;28;20379;-76
2021/03/23 01:20:11;;;;;;;15.82;5.57;;;;;;;-0.52;79.69;97354.81;5007364;28;20132;-76
2021/03/23 01:22:37;;;;;;;17.13;5.88;;;;;;;-0.54;80.04;97366.84;5011760;28;20091;-75
2021/03/23 01:25:06;;;;;;;12.70;5.45;;;;;;;-0.59;79.83;97364.53;5031202;28;20128;-76
2021/03/23 01:27:32;;;;;;;11.75;4.80;;;;;;;-0.52;79.71;97347.94;5011436;28;20103;-76
2021/03/23 01:29:58;;;;;;;12.75;5.13;;;;;;;-0.40;79.58;97364.38;5029771;28;20059;-76
2021/03/23 01:32:25;;;;;;;13.43;5.25;;;;;;;-0.37;79.15;97350.59;5012240;28;20053;-76
2021/03/23 01:34:52;;;;;;;14.45;5.40;;;;;;;-0.39;79.00;97344.72;5028595;28;20045;-76
2021/03/23 01:37:19;;;;;;;15.13;5.30;;;;;;;-0.24;79.02;97352.38;5026079;28;20041;-77
2021/03/23 01:39:45;;;;;;;13.37;5.30;;;;;;;-0.27;78.97;97351.75;4996497;28;20120;-77
2021/03/23 01:42:14;;;;;;;13.70;5.85;;;;;;;-0.23;78.86;97356.59;4999319;28;20164;-78
2021/03/23 01:44:43;;;;;;;16.20;6.07;;;;;;;-0.18;78.28;97346.09;5022586;28;20049;-79
2021/03/23 01:47:10;;;;;;;14.82;5.60;;;;;;;-0.15;78.79;97358.72;5002802;28;20062;-78
2021/03/23 01:49:45;;;;;;;14.15;6.10;;;;;;;-0.10;78.07;97343.94;5031546;28;20452;-76
2021/03/23 01:52:15;;;;;;;14.32;6.00;;;;;;;-0.22;78.06;97319.84;5010781;28;20163;-76
2021/03/23 01:55:07;;;;;;;15.52;6.15;;;;;;;-0.06;78.24;97342.88;5013546;28;21037;-77
2021/03/23 01:57:36;;;;;;;16.92;6.45;;;;;;;-0.27;78.93;97333.81;5014247;28;20060;-76
2021/03/23 02:00:05;;;;;;;24.88;6.32;;;;;;;-0.21;78.97;97338.59;5012733;28;20128;-76
2021/03/23 02:02:32;;;;;;;14.70;6.53;;;;;;;-0.31;78.74;97317.81;5029038;28;20049;-75
2021/03/23 02:05:16;;;;;;;14.35;6.40;;;;;;;-0.25;78.99;97327.72;5029471;28;20100;-75
2021/03/23 02:07:42;;;;;;;16.15;6.15;;;;;;;-0.31;79.53;97338.28;5012009;28;20068;-76
2021/03/23 02:10:09;;;;;;;16.95;6.70;;;;;;;-0.32;79.28;97328.94;5014129;28;20042;-76
2021/03/23 02:12:35;;;;;;;14.30;6.68;;;;;;;-0.47;80.01;97319.56;5030643;28;20037;-76
2021/03/23 02:15:02;;;;;;;15.68;7.00;;;;;;;-0.32;79.39;97331.50;4998061;28;20478;-75
2021/03/23 02:17:39;;;;;;;15.07;6.45;;;;;;;-0.40;80.00;97328.56;5030876;28;20053;-76
2021/03/23 02:20:18;;;;;;;16.65;6.65;;;;;;;-0.44;80.02;97338.13;5013262;28;20068;-75
2021/03/23 02:22:49;;;;;;;11.07;5.97;;;;;;;-0.49;79.87;97329.03;5031926;28;20033;-76
2021/03/23 02:25:21;;;;;;;18.65;6.82;;;;;;;-0.61;80.49;97328.00;5029028;28;20045;-75
2021/03/23 02:27:47;;;;;;;15.43;6.95;;;;;;;-0.79;81.44;97326.44;5030239;28;20045;-75
2021/03/23 02:30:26;;;;;;;17.58;6.70;;;;;;;-0.75;81.07;97315.13;5034397;28;20556;-76
2021/03/23 02:32:53;;;;;;;16.17;6.95;;;;;;;-0.66;80.53;97319.72;5014723;28;20500;-75
2021/03/23 02:35:29;;;;;;;16.70;6.60;;;;;;;-0.59;80.38;97320.22;5013291;28;20048;-75
2021/03/23 02:37:56;;;;;;;16.05;6.68;;;;;;;-0.73;80.90;97326.91;5030395;28;20041;-76
2021/03/23 02:40:23;;;;;;;16.48;6.20;;;;;;;-0.59;80.90;97333.00;5026858;28;20112;-75
2021/03/23 02:42:49;;;;;;;14.02;6.85;;;;;;;-0.70;80.75;97316.53;5009075;28;20049;-76
2021/03/23 02:45:18;;;;;;;16.35;7.45;;;;;;;-0.72;81.08;97318.34;4994903;28;20505;-76
2021/03/23 02:47:44;;;;;;;16.83;7.75;;;;;;;-0.65;81.19;97321.41;5015567;28;20642;-76
2021/03/23 02:50:11;;;;;;;15.40;6.97;;;;;;;-0.67;80.79;97318.91;5013810;28;20154;-77
2021/03/23 02:52:40;;;;;;;20.88;7.20;;;;;;;-0.80;81.56;97329.88;5016522;28;20045;-77
2021/03/23 02:55:07;;;;;;;17.13;7.68;;;;;;;-0.87;81.96;97322.56;5015494;28;20103;-77
2021/03/23 02:57:33;;;;;;;17.50;7.68;;;;;;;-1.05;82.31;97316.66;5031416;28;20049;-77
2021/03/23 03:00:00;;;;;;;17.85;7.32;;;;;;;-0.89;82.08;97320.97;5033394;28;20045;-76
2021/03/23 03:02:26;;;;;;;15.20;7.07;;;;;;;-0.94;82.05;97320.41;5014061;28;20049;-76
2021/03/23 03:04:52;;;;;;;20.27;8.43;;;;;;;-0.96;82.16;97317.91;5011855;28;20068;-75
2021/03/23 03:07:18;;;;;;;21.25;9.40;;;;;;;-0.89;82.04;97318.41;5016626;28;20067;-76
2021/03/23 03:09:44;;;;;;;17.55;9.25;;;;;;;-1.07;82.22;97313.38;5014095;28;20045;-76
2021/03/23 03:12:11;;;;;;;18.48;9.38;;;;;;;-1.15;83.17;97330.00;5007622;28;20199;-75
2021/03/23 03:14:37;;;;;;;20.48;9.43;;;;;;;-1.21;83.42;97328.59;5014169;28;20077;-76
2021/03/23 03:17:03;;;;;;;15.95;9.00;;;;;;;-1.11;82.46;97327.22;5029763;28;20052;-76
2021/03/23 03:19:29;;;;;;;22.95;9.70;;;;;;;-1.07;82.73;97336.38;5032067;28;20095;-75
2021/03/23 03:21:56;;;;;;;18.58;9.00;;;;;;;-1.06;82.68;97327.81;5010265;28;20053;-75
2021/03/23 03:24:22;;;;;;;24.42;9.90;;;;;;;-1.24;83.42;97331.31;5014572;28;20045;-76
2021/03/23 03:26:48;;;;;;;20.45;9.90;;;;;;;-1.28;83.82;97340.84;5012208;28;20069;-75
2021/03/23 03:29:14;;;;;;;23.00;10.20;;;;;;;-1.21;82.92;97335.44;5028277;28;20121;-75
2021/03/23 03:31:40;;;;;;;20.45;9.30;;;;;;;-1.30;83.86;97334.19;5013954;28;20448;-75
2021/03/23 03:34:07;;;;;;;24.58;10.38;;;;;;;-1.31;83.90;97343.59;5028814;28;20677;-74
2021/03/23 03:36:34;;;;;;;23.13;10.32;;;;;;;-1.21;83.16;97343.91;5015058;28;20049;-75
2021/03/23 03:39:01;;;;;;;21.23;9.68;;;;;;;-1.30;83.27;97334.19;5012879;28;20168;-75
2021/03/23 03:41:28;;;;;;;24.23;9.85;;;;;;;-1.35;83.48;97343.81;5010913;28;20063;-76
2021/03/23 03:43:55;;;;;;;23.50;10.80;;;;;;;-1.22;83.20;97339.72;5026987;28;20049;-76
2021/03/23 03:46:24;;;;;;;21.08;9.90;;;;;;;-1.36;83.49;97337.06;5013690;28;20437;-75
2021/03/23 03:48:50;;;;;;;21.92;11.38;;;;;;;-1.42;83.61;97348.38;5012054;28;20730;-76
2021/03/23 03:51:16;;;;;;;24.90;10.02;;;;;;;-1.23;83.29;97350.84;5032074;28;20041;-75
2021/03/23 03:53:42;;;;;;;31.77;11.43;;;;;;;-1.33;83.18;97354.78;5015100;28;20290;-76
2021/03/23 03:56:09;;;;;;;24.20;10.75;;;;;;;-1.12;82.91;97353.69;5031928;28;20052;-76
2021/03/23 03:58:35;;;;;;;23.27;9.43;;;;;;;-1.07;82.68;97349.16;5015416;28;20099;-77
2021/03/23 04:01:02;;;;;;;17.35;9.98;;;;;;;-0.97;82.39;97343.53;5013077;28;20113;-76
2021/03/23 04:03:30;;;;;;;25.55;10.20;;;;;;;-0.88;82.45;97354.13;5012641;28;20099;-75
2021/03/23 04:05:59;;;;;;;24.00;9.55;;;;;;;-0.81;82.03;97344.38;5030939;28;20298;-76
2021/03/23 04:08:31;;;;;;;25.90;10.18;;;;;;;-0.78;81.86;97354.47;5031109;28;20073;-76
2021/03/23 04:10:59;;;;;;;22.42;10.00;;;;;;;-0.71;81.80;97340.44;5031228;28;20543;-76
2021/03/23 04:13:25;;;;;;;28.65;10.40;;;;;;;-0.66;81.64;97335.06;5015860;28;20191;-75
2021/03/23 04:15:52;;;;;;;24.63;10.65;;;;;;;-0.64;81.61;97331.53;5013645;28;20042;-75
2021/03/23 04:18:23;;;;;;;23.58;11.82;;;;;;;-0.58;81.52;97342.34;5013747;28;20056;-76
2021/03/23 04:20:52;;;;;;;21.85;11.27;;;;;;;-0.57;81.23;97342.28;5014156;28;20041;-76
2021/03/23 04:23:26;;;;;;;25.27;11.35;;;;;;;-0.70;81.93;97331.88;5031900;28;20068;-76
2021/03/23 04:25:52;;;;;;;26.20;10.95;;;;;;;-0.47;81.34;97345.13;5015386;28;20140;-76
2021/03/23 04:28:19;;;;;;;25.57;11.73;;;;;;;-0.30;80.74;97345.03;4997321;28;20075;-77
2021/03/23 04:30:47;;;;;;;20.50;9.93;;;;;;;-0.38;80.62;97341.25;5013947;28;20283;-76
2021/03/23 04:33:15;;;;;;;29.80;11.15;;;;;;;-0.47;81.03;97352.81;5033475;28;20080;-76
2021/03/23 04:36:02;;;;;;;25.77;10.93;;;;;;;-0.33;80.39;97357.19;5032264;28;20037;-76
2021/03/23 04:38:36;;;;;;;24.13;11.30;;;;;;;-0.33;80.64;97362.31;5033506;28;20798;-75
2021/03/23 04:41:11;;;;;;;24.52;10.05;;;;;;;-0.38;80.97;97354.88;5015623;28;20116;-76
2021/03/23 04:43:43;;;;;;;22.38;10.95;;;;;;;-0.39;80.88;97363.47;5031294;28;20569;-76
2021/03/23 04:46:11;;;;;;;20.15;10.20;;;;;;;-0.46;81.01;97355.28;5014725;28;20049;-76
2021/03/23 04:48:37;;;;;;;26.35;11.65;;;;;;;-0.35;80.85;97349.59;5013174;28;20060;-75
2021/03/23 04:51:07;;;;;;;20.70;11.23;;;;;;;-0.32;80.52;97356.25;4998156;28;20052;-76
2021/03/23 04:53:36;;;;;;;20.75;11.00;;;;;;;-0.42;81.06;97361.91;5029471;28;20148;-74
2021/03/23 04:56:04;;;;;;;20.13;10.65;;;;;;;-0.40;80.81;97364.38;5011627;28;21219;-73
2021/03/23 04:58:30;;;;;;;148.63;75.38;;;;;;;-0.48;81.50;97361.41;5014389;28;20084;-73
2021/03/23 05:00:58;;;;;;;116.88;65.28;;;;;;;-0.31;80.96;97358.75;5012403;28;21990;-75
2021/03/23 05:03:28;;;;;;;28.73;13.55;;;;;;;-0.37;81.17;97366.75;4995723;28;20083;-75
2021/03/23 05:05:55;;;;;;;26.10;14.07;;;;;;;-0.47;81.40;97360.47;5012617;28;20045;-75
2021/03/23 05:08:24;;;;;;;27.35;12.90;;;;;;;-0.29;81.22;97368.91;5014853;28;20045;-76
2021/03/23 05:10:51;;;;;;;23.10;12.13;;;;;;;-0.29;81.13;97371.47;5014434;28;20053;-76
2021/03/23 05:13:17;;;;;;;31.40;11.95;;;;;;;-0.42;81.04;97372.13;4997254;28;20049;-77
2021/03/23 05:15:44;;;;;;;21.75;12.57;;;;;;;-0.25;80.64;97373.75;5030606;28;20413;-76
2021/03/23 05:18:11;;;;;;;27.13;13.30;;;;;;;-0.15;80.41;97386.03;5013825;28;20551;-76
2021/03/23 05:20:37;;;;;;;24.42;13.27;;;;;;;-0.26;80.55;97382.34;5020582;28;20116;-75
2021/03/23 05:23:05;;;;;;;26.13;13.18;;;;;;;-0.17;80.40;97385.31;5029100;28;20096;-75
2021/03/23 05:25:31;;;;;;;26.92;12.43;;;;;;;-0.14;80.69;97388.53;5010937;28;20048;-74
2021/03/23 05:27:57;;;;;;;25.35;13.13;;;;;;;-0.23;80.57;97383.94;5011854;28;20053;-75
2021/03/23 05:30:24;;;;;;;28.02;13.30;;;;;;;-0.16;80.63;97384.41;5014435;28;20045;-75
2021/03/23 05:32:50;;;;;;;27.27;13.30;;;;;;;-0.13;80.34;97389.34;5025664;28;20128;-74
2021/03/23 05:35:18;;;;;;;27.75;13.05;;;;;;;0.01;79.88;97394.53;5027722;28;20577;-74
2021/03/23 05:37:48;;;;;;;32.25;15.10;;;;;;;-0.08;80.24;97395.88;5027950;28;20050;-74
2021/03/23 05:40:28;;;;;;;24.48;13.60;;;;;;;0.00;80.15;97398.03;5010158;28;20132;-74
2021/03/23 05:43:19;;;;;;;25.17;13.10;;;;;;;0.08;80.18;97406.06;5013154;28;20045;-74
2021/03/23 05:45:46;;;;;;;25.25;12.82;;;;;;;0.15;79.45;97404.84;5026974;28;20362;-75
2021/03/23 05:48:16;;;;;;;27.50;14.35;;;;;;;0.18;79.56;97401.28;5029237;28;20041;-73
2021/03/23 05:50:47;;;;;;;29.83;13.10;;;;;;;0.08;79.80;97395.84;5027843;28;20037;-75
2021/03/23 05:53:29;;;;;;;26.75;12.85;;;;;;;0.26;79.36;97409.34;5009106;28;20474;-73
2021/03/23 05:56:00;;;;;;;24.90;12.75;;;;;;;0.35;79.14;97405.44;5010537;28;20045;-76
2021/03/23 05:58:32;;;;;;;31.52;12.68;;;;;;;0.04;79.90;97404.59;5005610;28;20054;-75
2021/03/23 06:01:25;;;;;;;23.45;12.38;;;;;;;0.32;78.84;97410.75;5009125;28;20199;-76
2021/03/23 06:04:17;;;;;;;25.58;12.90;;;;;;;0.47;78.36;97412.44;5012566;28;20045;-74
2021/03/23 06:07:02;;;;;;;30.63;13.18;;;;;;;0.19;79.36;97414.00;5027071;28;20132;-76
2021/03/23 06:09:38;;;;;;;26.38;12.63;;;;;;;0.26;79.13;97406.78;5028281;28;20057;-76
2021/03/23 06:12:22;;;;;;;26.42;12.32;;;;;;;0.29;79.00;97416.03;5028499;28;20108;-75
2021/03/23 06:15:00;;;;;;;22.92;12.10;;;;;;;0.31;78.85;97419.34;5013091;28;20048;-75
2021/03/23 06:17:39;;;;;;;22.45;13.02;;;;;;;0.32;78.65;97419.25;5026591;28;20050;-75
2021/03/23 06:20:24;;;;;;;25.75;12.75;;;;;;;0.58;78.16;97411.81;5024224;28;20049;-75
2021/03/23 06:23:12;;;;;;;27.90;13.43;;;;;;;0.66;77.95;97419.06;5028102;28;20122;-75
2021/03/23 06:25:45;;;;;;;27.00;12.82;;;;;;;0.71;77.87;97417.06;5028457;28;20076;-76
2021/03/23 06:28:22;;;;;;;23.40;13.02;;;;;;;0.81;77.31;97421.56;5010323;28;20053;-77
2021/03/23 06:31:09;;;;;;;29.88;12.32;;;;;;;0.70;77.21;97421.38;5009743;28;20045;-77
2021/03/23 06:33:35;;;;;;;25.08;11.90;;;;;;;0.72;77.19;97419.53;4996225;28;20049;-76
2021/03/23 06:36:10;;;;;;;25.13;12.38;;;;;;;0.79;76.95;97430.25;5029504;28;20049;-76
2021/03/23 06:38:40;;;;;;;26.25;12.45;;;;;;;0.86;76.92;97436.66;5010545;28;20432;-77
2021/03/23 06:41:20;;;;;;;25.30;12.25;;;;;;;1.10;76.30;97433.56;5012421;28;20387;-76
2021/03/23 06:43:53;;;;;;;24.02;12.65;;;;;;;1.04;75.63;97426.25;5031479;28;20046;-77
2021/03/23 06:46:27;;;;;;;27.88;12.63;;;;;;;1.10;75.77;97441.25;5017176;28;20465;-77
2021/03/23 06:49:13;;;;;;;27.33;11.77;;;;;;;1.60;74.39;97437.41;5017001;28;20049;-77
2021/03/23 06:52:01;;;;;;;23.63;11.98;;;;;;;1.41;74.39;97448.78;5023271;28;20037;-79
2021/03/23 06:54:27;;;;;;;26.00;12.70;;;;;;;1.42;74.83;97442.75;5018630;28;20769;-80
2021/03/23 06:57:02;;;;;;;24.15;12.60;;;;;;;1.46;74.95;97450.25;5020155;28;20041;-78
2021/03/23 06:59:44;;;;;;;27.08;12.32;;;;;;;1.52;74.71;97444.75;5034175;28;20132;-77
2021/03/23 07:02:31;;;;;;;27.10;13.10;;;;;;;1.66;74.17;97452.44;5016961;28;20092;-77
2021/03/23 07:05:17;;;;;;;27.63;12.65;;;;;;;1.74;74.07;97457.94;5035307;28;20081;-78
2021/03/23 07:07:56;;;;;;;29.02;12.80;;;;;;;1.90;73.62;97450.09;5017159;28;20119;-78
2021/03/23 07:10:32;;;;;;;27.48;13.65;;;;;;;1.96;73.44;97446.31;5019112;28;20106;-78
2021/03/23 07:12:58;;;;;;;24.73;13.25;;;;;;;2.03;72.90;97437.31;5020812;28;20299;-79
2021/03/23 07:15:31;;;;;;;24.20;13.13;;;;;;;1.91;73.15;97448.38;5021607;28;20050;-78
2021/03/23 07:17:59;;;;;;;23.45;13.07;;;;;;;2.05;73.17;97458.56;5020727;28;20136;-79
2021/03/23 07:20:28;;;;;;;29.08;13.98;;;;;;;2.12;72.70;97453.91;5018540;28;20051;-79
2021/03/23 07:22:55;;;;;;;28.05;15.63;;;;;;;2.43;72.03;97457.88;5018581;28;20045;-79
2021/03/23 07:25:40;;;;;;;31.05;15.35;;;;;;;1.82;73.49;97458.28;5018710;28;20100;-79
2021/03/23 07:28:29;;;;;;;40.08;14.60;;;;;;;2.34;72.16;97459.31;5036125;28;20045;-79
2021/03/23 07:31:16;;;;;;;31.80;13.65;;;;;;;2.33;72.20;97464.53;5018881;28;20106;-79
2021/03/23 07:34:01;;;;;;;29.98;13.68;;;;;;;2.58;71.56;97464.63;5019710;28;20109;-80
2021/03/23 07:36:40;;;;;;;27.58;12.90;;;;;;;3.01;70.97;97468.72;5037110;28;20465;-80
2021/03/23 07:39:35;;;;;;;26.42;13.70;;;;;;;3.25;69.64;97458.53;5034125;28;20096;-79
2021/03/23 07:42:35;;;;;;;25.70;17.23;;;;;;;2.82;71.48;97466.53;5020831;28;20058;-79
2021/03/23 07:45:07;;;;;;;25.58;15.15;;;;;;;3.26;71.39;97467.91;5020439;28;20261;-78
2021/03/23 07:47:44;;;;;;;30.20;15.90;;;;;;;3.19;70.36;97474.38;5015621;28;20072;-78
2021/03/23 07:50:19;;;;;;;28.23;16.08;;;;;;;2.98;70.81;97467.16;5023261;28;20382;-79
2021/03/23 07:52:52;;;;;;;27.67;15.57;;;;;;;3.25;70.08;97469.63;5019107;28;20262;-78
2021/03/23 07:55:24;;;;;;;28.33;17.10;;;;;;;3.52;69.11;97460.16;5005265;28;20045;-79
2021/03/23 07:58:22;;;;;;;36.22;18.98;;;;;;;3.43;69.47;97479.63;5035273;28;20041;-79
2021/03/23 08:01:03;;;;;;;36.72;22.17;;;;;;;3.33;69.58;97481.19;5000081;28;20053;-79
2021/03/23 08:03:41;;;;;;;29.23;16.83;;;;;;;3.80;68.09;97469.38;5033316;28;20049;-79
2021/03/23 08:06:24;;;;;;;34.33;16.63;;;;;;;4.24;67.22;97481.69;5016859;28;20124;-79
2021/03/23 08:09:27;;;;;;;28.63;14.82;;;;;;;4.23;67.18;97492.09;5016967;28;20045;-78
2021/03/23 08:12:12;;;;;;;28.15;16.08;;;;;;;4.20;67.35;97490.56;5018409;28;20030;-78
2021/03/23 08:15:09;;;;;;;32.40;16.83;;;;;;;4.14;67.62;97485.84;5019115;28;20049;-78
2021/03/23 08:17:58;;;;;;;35.03;17.83;;;;;;;4.25;67.52;97496.25;5035102;28;20076;-79
2021/03/23 08:20:34;;;;;;;28.33;16.77;;;;;;;4.37;67.13;97496.31;5011694;28;20057;-78
2021/03/23 08:23:22;;;;;;;26.80;16.10;;;;;;;4.70;66.35;97490.47;5032327;28;20401;-78
2021/03/23 08:25:59;;;;;;;31.33;17.80;;;;;;;4.83;64.98;97486.06;5015373;28;20113;-78
2021/03/23 08:28:47;;;;;;;28.10;16.15;;;;;;;5.00;64.94;97496.91;5014093;28;20038;-77
2021/03/23 08:31:35;;;;;;;29.30;15.85;;;;;;;5.26;63.87;97502.69;5031599;28;20045;-78
2021/03/23 08:34:29;;;;;;;26.17;14.88;;;;;;;5.37;63.78;97494.97;5033156;28;20891;-79
2021/03/23 08:37:23;;;;;;;26.00;15.38;;;;;;;5.33;62.78;97482.41;5017294;28;20049;-79
2021/03/23 08:40:28;;;;;;;26.20;14.25;;;;;;;5.94;61.73;97497.56;5015755;28;20037;-79
2021/03/23 08:42:54;;;;;;;34.65;20.00;;;;;;;7.06;59.86;97492.03;5034164;28;20128;-79
2021/03/23 08:45:30;;;;;;;26.27;15.73;;;;;;;6.75;59.63;97498.06;5016238;28;20064;-79
2021/03/23 08:48:16;;;;;;;24.17;15.68;;;;;;;7.45;59.04;97507.81;5021081;28;20036;-79
2021/03/23 08:50:45;;;;;;;25.75;14.57;;;;;;;6.85;58.05;97498.97;5018344;28;20041;-79
2021/03/23 08:53:34;;;;;;;24.98;14.57;;;;;;;7.80;57.90;97510.97;5017057;28;20132;-75
2021/03/23 08:56:02;;;;;;;22.27;13.90;;;;;;;7.94;56.23;97498.47;5011641;28;20052;-76
2021/03/23 08:58:39;;;;;;;23.38;12.65;;;;;;;8.00;56.14;97498.88;5031721;28;20053;-76
2021/03/23 09:01:28;;;;;;;38.60;19.77;;;;;;;8.98;55.06;97494.69;5009181;28;20532;-75
2021/03/23 09:04:04;;;;;;;21.98;14.23;;;;;;;9.04;53.95;97499.28;5013243;28;20072;-76
2021/03/23 09:06:48;;;;;;;20.27;13.13;;;;;;;8.53;55.53;97503.84;5015678;28;20059;-75
2021/03/23 09:09:20;;;;;;;23.83;13.15;;;;;;;8.59;54.04;97495.47;5010788;28;20167;-76
2021/03/23 09:11:46;;;;;;;23.60;13.63;;;;;;;8.38;54.99;97505.13;5008135;28;20072;-75
2021/03/23 09:14:18;;;;;;;25.90;14.45;;;;;;;9.27;54.29;97500.66;5015653;28;20140;-76
2021/03/23 09:16:59;;;;;;;23.38;13.50;;;;;;;9.64;53.88;97496.44;5009745;28;20124;-75
2021/03/23 09:19:40;;;;;;;22.90;14.00;;;;;;;9.82;49.39;97496.50;4998230;28;20160;-75
2021/03/23 09:22:28;;;;;;;28.52;15.07;;;;;;;8.38;52.93;97497.34;5027424;28;20048;-75
2021/03/23 09:25:31;;;;;;;24.00;13.07;;;;;;;9.56;51.37;97497.13;5023427;28;20564;-76
2021/03/23 09:28:00;;;;;;;24.05;13.68;;;;;;;12.25;46.37;97488.34;5027728;28;20033;-74
2021/03/23 09:30:39;;;;;;;20.80;12.35;;;;;;;12.47;44.12;97492.16;5007451;28;20079;-75
2021/03/23 09:33:23;;;;;;;19.15;11.02;;;;;;;10.55;46.35;97494.75;5010603;28;20052;-74
2021/03/23 09:36:22;;;;;;;19.33;12.20;;;;;;;10.01;48.77;97498.19;5027660;28;20491;-75
2021/03/23 09:38:53;;;;;;;;;;;;;;;9.98;47.88;97497.50;5012319;28;20041;-75
2021/03/23 09:41:22;;;;;;;18.38;11.95;;;;;;;10.91;46.45;97493.94;5026666;28;20334;-74
2021/03/23 09:44:18;;;;;;;19.73;12.30;;;;;;;8.97;52.62;97491.25;5026459;28;20045;-74
2021/03/23 09:46:49;;;;;;;18.45;11.75;;;;;;;7.42;54.36;97482.16;4991392;28;20389;-73
2021/03/23 09:49:43;;;;;;;38.25;19.05;;;;;;;8.63;53.66;97489.06;5006701;28;20452;-73
2021/03/23 09:52:18;;;;;;;15.02;8.82;;;;;;;10.88;45.73;97489.00;5022583;28;20064;-74
2021/03/23 09:54:58;;;;;;;18.00;8.98;;;;;;;11.85;44.27;97493.22;5007747;28;20071;-74
2021/03/23 09:57:29;;;;;;;13.60;7.55;;;;;;;11.73;41.79;97486.66;5009638;28;20084;-75
2021/03/23 10:00:33;;;;;;;14.63;8.20;;;;;;;17.42;32.02;97477.53;5011122;28;20412;-77
2021/03/23 10:03:01;;;;;;;12.45;7.90;;;;;;;16.15;32.22;97480.78;5027637;28;20064;-77
2021/03/23 10:05:31;;;;;;;10.45;6.68;;;;;;;10.87;41.74;97490.00;4997504;28;20081;-77
2021/03/23 10:08:19;;;;;;;13.70;7.63;;;;;;;9.78;45.20;97472.59;5031419;28;20080;-76
2021/03/23 10:10:46;;;;;;;10.98;6.07;;;;;;;8.97;46.65;97491.25;4995135;28;20042;-78
2021/03/23 10:13:30;;;;;;;14.88;6.78;;;;;;;8.86;48.81;97479.22;5029672;28;20046;-76
2021/03/23 10:15:59;;;;;;;19.20;7.18;;;;;;;8.07;49.98;97485.28;5030299;28;20042;-77
2021/03/23 10:18:31;;;;;;;15.25;7.07;;;;;;;9.10;47.38;97465.81;5017425;28;20068;-78
2021/03/23 10:21:16;;;;;;;14.45;7.03;;;;;;;9.10;45.43;97489.19;4998136;28;20038;-79
2021/03/23 10:23:47;;;;;;;12.95;5.50;;;;;;;8.63;47.60;97483.88;5033945;28;20045;-77
2021/03/23 10:26:14;;;;;;;11.15;4.85;;;;;;;8.20;46.34;97484.22;5015467;28;20049;-77
2021/03/23 10:28:50;;;;;;;9.98;5.28;;;;;;;13.86;38.83;97484.22;5016706;28;20041;-74
2021/03/23 10:31:40;;;;;;;12.43;5.75;;;;;;;15.47;32.77;97478.22;5015386;28;20493;-74
2021/03/23 10:34:19;;;;;;;9.80;5.70;;;;;;;26.59;18.80;97481.84;5033197;28;20033;-73
2021/03/23 10:36:48;;;;;;;8.50;5.10;;;;;;;15.15;28.98;97471.50;5012242;28;20050;-73
2021/03/23 10:39:39;;;;;;;10.32;5.53;;;;;;;11.30;38.97;97477.91;5013151;28;20049;-73
2021/03/23 10:42:23;;;;;;;10.90;5.80;;;;;;;12.29;39.18;97472.19;5013641;28;20670;-74
2021/03/23 10:44:51;;;;;;;8.13;4.40;;;;;;;11.31;38.49;97463.94;5013026;28;20060;-74
2021/03/23 10:47:37;;;;;;;10.15;4.97;;;;;;;10.71;40.55;97472.41;5029359;28;20485;-73
2021/03/23 10:50:25;;;;;;;9.40;4.55;;;;;;;10.81;41.13;97473.16;5000088;28;20049;-74
2021/03/23 10:53:07;;;;;;;12.95;5.18;;;;;;;10.38;40.29;97469.53;4997908;28;20068;-73
2021/03/23 10:55:37;;;;;;;9.85;5.63;;;;;;;10.01;40.27;97454.78;5009862;28;21532;-73
2021/03/23 10:58:14;;;;;;;10.70;5.50;;;;;;;9.91;41.89;97460.06;5014310;28;20045;-73
2021/03/23 11:00:40;;;;;;;9.27;5.20;;;;;;;9.16;43.69;97464.41;5032129;28;20513;-73
2021/03/23 11:03:19;;;;;;;11.70;5.13;;;;;;;10.26;40.08;97457.66;5031244;28;20041;-73
2021/03/23 11:05:51;;;;;;;13.73;7.75;;;;;;;10.21;39.44;97458.09;5029404;28;20042;-73
2021/03/23 11:08:19;;;;;;;11.13;5.72;;;;;;;12.59;36.95;97444.69;5030240;28;20041;-73
2021/03/23 11:10:45;;;;;;;;;;;;;;;17.86;28.02;97447.44;5016170;28;20046;-74
2021/03/23 11:13:14;;;;;;;10.23;5.15;;;;;;;15.48;29.71;97451.81;5011542;28;20385;-73
2021/03/23 11:15:42;;;;;;;44.85;30.90;;;;;;;12.17;34.41;97447.34;5030235;28;20124;-73
2021/03/23 11:18:29;;;;;;;15.60;9.85;;;;;;;11.02;36.35;97452.00;5012034;28;20700;-73
2021/03/23 11:20:58;;;;;;;74.03;60.38;;;;;;;10.15;39.57;97445.69;5029652;28;20049;-72
2021/03/23 11:23:44;;;;;;;11.95;7.60;;;;;;;10.14;40.04;97437.06;5009695;28;20034;-72
2021/03/23 11:26:14;;;;;;;9.88;4.55;;;;;;;11.67;36.98;97451.56;5025165;28;20432;-73
2021/03/23 11:28:41;;;;;;;13.75;6.35;;;;;;;12.41;35.52;97436.16;5030149;28;20049;-73
2021/03/23 11:31:08;;;;;;;16.92;7.65;;;;;;;12.56;34.92;97438.97;5029001;28;20037;-73
2021/03/23 11:33:36;;;;;;;8.18;4.50;;;;;;;11.81;37.95;97442.34;5026651;28;20052;-73
2021/03/23 11:36:04;;;;;;;8.68;4.68;;;;;;;10.85;38.10;97442.44;5011178;28;20049;-72
2021/03/23 11:38:31;;;;;;;8.70;4.28;;;;;;;11.42;38.43;97435.00;5013937;28;20120;-77
2021/03/23 11:40:59;;;;;;;9.38;4.68;;;;;;;10.71;37.65;97434.19;5015769;28;20106;-76
2021/03/23 11:43:28;;;;;;;11.55;5.43;;;;;;;10.58;39.03;97439.78;5013010;28;20044;-75
2021/03/23 11:46:01;;;;;;;13.43;5.50;;;;;;;9.55;41.19;97439.16;5012310;28;21514;-74
2021/03/23 11:48:34;;;;;;;10.05;4.65;;;;;;;9.71;41.77;97441.13;5024956;28;20489;-73
2021/03/23 11:51:01;;;;;;;11.75;6.00;;;;;;;9.40;41.17;97450.97;5009144;28;20060;-73
2021/03/23 11:53:27;;;;;;;13.35;5.57;;;;;;;8.85;44.00;97423.06;5029085;28;20045;-73